Chunky, Mississippi
Current Conditions -  °F | °C
As of 5:58 AM on Thursday 29 Jan 2015 (Local Time) from KMEI Reporting Station
Clear Clear  
Wind Chill: 35°   Ceiling: Unl
Heat Index: 39°   Visibility: 10mi
Dew Point: 34°   Wind: 6mph
Humidity: 82%   Direction: 170°S
Pressure: 30.24"   Gusts: NA
Location:  32.33°N, 88.93°W
Report Text: KMEI 291158Z 17005KT 10SM CLR 04/01 A3024 RMK AO2 SLP239 T00390011 10067 20033 53008
Loading
Personal Weather Stations






























Interactive Weather Map New forecast layout! Learn more

10-Day Weather Forecast

Advertisements
Track Severe Weather on mobile